Flight Number: EUR2340 Duration: 3:00
Departure: Antalya (LTAI) at 06:00 Distance: 1080 Nm
Arrival: Munich Int'l (EDDM) at 09:00 Equipment: A321

Weather Information
Antalya, Turkey (LTAI) 36-42N 030-44E 57M Nov 19, 2018 - 04:50 PM EST / 2018.11.19 2150 UTC
Wind: from the NW (310 degrees) at 5 MPH (4 KT):0
Visibility: greater than 7 mile(s):0
Sky conditions: partly cloudy Temperature: 59 F (15 C) Dew Point: 55 F (13 C) Relative Humidity: 87% Pressure (altimeter): 30.15 in. Hg (1021 hPa)
ob: LTAI 192150Z 31004KT 9999 SCT030 15/13 Q1021 NOSIG cycle: 22
Sunrise: 04:42 Sunset: 14:41 (UTC)

Munchen, Germany (EDDM) 48-21N 011-47E Nov 19, 2018 - 04:50 PM EST / 2018.11.19 2150 UTC
Wind: from the E (080 degrees) at 13 MPH (11 KT):0
Visibility: greater than 7 mile(s):0
Sky conditions: overcast Temperature: 32 F (0 C)
Windchill: 23 F (-5 C):1 Dew Point: 26 F (-3 C) Relative Humidity: 80% Pressure (altimeter): 29.77 in. Hg (1008 hPa)
ob: EDDM 192150Z 08011KT 9999 OVC013 M00/M03 Q1008 NOSIG cycle: 22
Sunrise: 06:30 Sunset: 15:25 (UTC)

TAF:2018/11/19 18:27 TAF EDDM 191700Z 1918/2024 08015KT 9999 BKN015 TEMPO 1918/2012 BKN012 BECMG 1923/2001 09010KT PROB30 TEMPO 2004/2007 4500 -SN BKN009 BECMG 2013/2015 09005KT BECMG 2019/2023 BKN007

Previous Pireps for this route
Date Aircraft Flight time Fuel used Landing rate On time
2015-01-07A32102.5417912-205Charter
2016-01-18A32103.0616984-2No
2016-04-05A32103.3526587-465.38No
2016-09-30A330-20002.3440823-171Charter
(pireps marked green are flown by you)

Route map